Time;durP1;ratioP1;P1;durP2;ratioP2;P2;SDS_P1;SDS_P2;PMS_P1;PMS_P2;Temp;Humidity;BMP_temperature;BMP_pressure;BME280_temperature;BME280_humidity;BME280_pressure;Samples;Min_cycle;Max_cycle;Signal;HPM_P1;HPM_P2
2021/01/27 00:01:12;;;;;;;34.58;21.60;;;;;;;1.40;74.07;99964.69;2198035;80;27797;-72
2021/01/27 00:04:14;;;;;;;34.85;21.87;;;;;;;1.41;74.16;99961.12;2186990;80;30730;-71
2021/01/27 00:07:16;;;;;;;39.05;24.18;;;;;;;1.41;74.21;99965.55;2204285;80;32104;-70
2021/01/27 00:10:19;;;;;;;34.95;22.62;;;;;;;1.44;74.27;99965.49;2181520;81;33100;-71
2021/01/27 00:13:21;;;;;;;37.70;23.02;;;;;;;1.41;74.18;99965.08;2219005;80;28862;-70
2021/01/27 00:16:24;;;;;;;32.70;22.52;;;;;;;1.42;74.27;99962.00;2218980;80;27640;-71
2021/01/27 00:19:28;;;;;;;39.75;23.95;;;;;;;1.41;74.25;99964.22;2191184;80;29925;-70
2021/01/27 00:22:33;;;;;;;37.35;23.98;;;;;;;1.40;74.34;99960.73;2181370;81;31135;-70
2021/01/27 00:25:36;;;;;;;;;;;;;;;1.40;74.29;99962.48;2184262;80;32825;-71
2021/01/27 00:28:38;;;;;;;35.55;22.52;;;;;;;1.38;74.25;99961.20;2190814;80;30101;-72
2021/01/27 00:31:40;;;;;;;36.93;23.00;;;;;;;1.35;74.36;99962.56;2207192;80;27721;-72
2021/01/27 00:34:42;;;;;;;36.20;23.32;;;;;;;1.35;74.31;99961.25;2180710;81;29587;-72
2021/01/27 00:37:44;;;;;;;38.90;24.70;;;;;;;1.38;74.39;99961.20;2191239;80;31174;-72
2021/01/27 00:40:47;;;;;;;40.52;25.15;;;;;;;1.43;74.41;99961.97;2181601;81;32945;-71
2021/01/27 00:43:49;;;;;;;36.55;24.85;;;;;;;1.46;74.44;99966.34;2188194;80;29788;-70
2021/01/27 00:46:51;;;;;;;39.13;24.52;;;;;;;1.47;74.41;99968.09;2219689;80;27702;-68
2021/01/27 00:49:54;;;;;;;39.23;24.75;;;;;;;1.49;74.42;99964.98;2219316;80;28812;-68
2021/01/27 00:52:56;;;;;;;42.25;25.20;;;;;;;1.50;74.40;99966.69;2191575;80;32089;-69
2021/01/27 00:55:59;;;;;;;41.88;26.27;;;;;;;1.50;74.36;99975.49;2153853;81;33138;-69
2021/01/27 00:59:01;;;;;;;39.40;25.00;;;;;;;1.45;74.27;99975.16;2188776;80;30255;-69
2021/01/27 01:02:03;;;;;;;38.28;24.37;;;;;;;1.44;74.34;99977.38;2207347;80;27864;-70
2021/01/27 01:05:09;;;;;;;41.13;25.62;;;;;;;1.41;74.35;99979.59;2220182;80;28870;-69
2021/01/27 01:08:15;;;;;;;40.52;25.12;;;;;;;1.43;74.42;99976.48;2214333;80;31227;-69
2021/01/27 01:11:17;;;;;;;42.53;24.75;;;;;;;1.43;74.40;99980.44;2197159;80;33172;-71
2021/01/27 01:14:19;;;;;;;40.45;24.15;;;;;;;1.45;74.40;99976.48;2219294;80;30102;-69
2021/01/27 01:17:21;;;;;;;38.48;24.18;;;;;;;1.46;74.36;99972.48;2205714;80;27660;-71
2021/01/27 01:20:23;;;;;;;36.53;23.67;;;;;;;1.47;74.33;99972.91;2184543;80;28818;-69
2021/01/27 01:23:25;;;;;;;37.00;24.23;;;;;;;1.46;74.31;99968.52;2220437;80;32083;-70
2021/01/27 01:26:27;;;;;;;38.98;23.27;;;;;;;1.46;74.28;99970.30;2220472;80;33750;-72
2021/01/27 01:29:30;;;;;;;39.30;25.27;;;;;;;1.45;74.37;99983.08;2218940;80;28587;-70
2021/01/27 01:32:32;;;;;;;37.70;23.60;;;;;;;1.43;74.31;99967.25;2190015;80;27761;-70
2021/01/27 01:35:34;;;;;;;40.65;23.55;;;;;;;1.43;74.31;99976.48;2200106;80;28850;-70
2021/01/27 01:38:36;;;;;;;38.73;23.00;;;;;;;1.44;74.35;99969.45;2218213;80;31149;-70
2021/01/27 01:41:38;;;;;;;38.98;23.87;;;;;;;1.45;74.36;99970.73;2201618;80;33108;-70
2021/01/27 01:44:40;;;;;;;38.73;24.02;;;;;;;1.48;74.37;99976.43;2181589;81;29231;-70
2021/01/27 01:47:42;;;;;;;37.05;23.35;;;;;;;1.49;74.39;99971.58;2181555;80;27614;-69
2021/01/27 01:50:46;;;;;;;39.95;23.70;;;;;;;1.48;74.37;99973.33;2196630;80;28897;-70
2021/01/27 01:53:51;;;;;;;41.40;23.73;;;;;;;1.49;74.41;99971.58;2181059;81;31409;-68
2021/01/27 01:57:04;;;;;;;35.83;23.95;;;;;;;1.51;74.36;99971.07;2186941;80;33122;-68
2021/01/27 02:00:08;;;;;;;37.88;22.73;;;;;;;1.49;74.38;99968.47;2198487;80;28959;-69
2021/01/27 02:03:12;;;;;;;42.83;24.37;;;;;;;1.48;74.33;99973.79;2183543;80;27632;-69
2021/01/27 02:06:15;;;;;;;38.30;23.90;;;;;;;1.50;74.48;99975.92;2194356;80;28853;-69
2021/01/27 02:09:17;;;;;;;40.73;22.60;;;;;;;1.50;74.39;99978.13;2219826;80;32119;-68
2021/01/27 02:12:47;;;;;;;38.95;22.75;;;;;;;1.50;74.41;99974.61;2219037;80;33270;-69
2021/01/27 02:16:18;;;;;;;36.38;21.85;;;;;;;1.49;74.38;99970.25;2219528;80;29172;-68
2021/01/27 02:19:50;;;;;;;39.08;23.38;;;;;;;1.49;74.30;99974.22;2218375;80;27756;-67
2021/01/27 02:23:26;;;;;;;37.50;22.82;;;;;;;1.50;74.41;99976.81;2179499;81;28836;-68
2021/01/27 02:26:34;;;;;;;;;;;;;;;1.52;74.43;99975.45;2199234;80;32442;-68
2021/01/27 02:30:23;;;;;;;35.83;21.50;;;;;;;1.50;74.28;99974.61;2186555;80;33325;-67
2021/01/27 02:33:52;;;;;;;38.05;22.60;;;;;;;1.47;74.32;99969.41;2215127;80;29159;-67
2021/01/27 02:37:12;;;;;;;37.08;21.17;;;;;;;1.46;74.30;99974.27;2217253;80;27776;-69
2021/01/27 02:40:28;;;;;;;35.85;21.95;;;;;;;1.47;74.34;99976.01;2194294;80;28818;-67
2021/01/27 02:43:43;;;;;;;34.15;22.00;;;;;;;1.45;74.33;99982.61;2218640;80;31119;-67
2021/01/27 02:46:53;;;;;;;35.78;19.60;;;;;;;1.45;74.28;99983.94;2219314;80;34054;-67
2021/01/27 02:50:08;;;;;;;34.38;20.20;;;;;;;1.47;74.41;99987.42;2206033;80;29161;-68
2021/01/27 02:53:31;;;;;;;33.33;21.27;;;;;;;1.49;74.31;99977.70;2182112;81;27701;-67
2021/01/27 02:56:57;;;;;;;35.95;21.30;;;;;;;1.50;74.34;99976.81;2185712;80;28765;-68
2021/01/27 03:00:07;;;;;;;33.08;20.62;;;;;;;1.53;74.28;99981.62;2184446;80;31180;-67
2021/01/27 03:03:17;;;;;;;35.68;21.85;;;;;;;1.53;74.21;99980.30;2185011;80;34029;-67
2021/01/27 03:06:20;;;;;;;35.25;20.60;;;;;;;1.51;74.18;99987.80;2220443;80;29118;-67
2021/01/27 03:09:36;;;;;;;34.00;20.97;;;;;;;1.51;74.12;99993.51;2223330;80;27601;-67
2021/01/27 03:12:38;;;;;;;34.18;20.12;;;;;;;1.49;74.13;99992.23;2220863;80;28805;-66
2021/01/27 03:15:40;;;;;;;30.70;18.35;;;;;;;1.48;74.08;99994.45;2222244;80;31137;-67
2021/01/27 03:18:45;;;;;;;33.33;17.75;;;;;;;1.48;74.04;99997.55;2223422;80;33248;-70
2021/01/27 03:21:59;;;;;;;30.08;18.02;;;;;;;1.49;74.17;99993.55;2201008;80;29333;-68
2021/01/27 03:25:22;;;;;;;30.10;17.82;;;;;;;1.50;74.02;99997.93;2201077;80;27823;-69
2021/01/27 03:28:34;;;;;;;28.32;18.37;;;;;;;1.51;74.03;100001.42;2219974;80;28818;-68
2021/01/27 03:31:36;;;;;;;28.07;17.73;;;;;;;1.52;73.98;100003.17;2213248;80;31134;-68
2021/01/27 03:34:42;;;;;;;25.48;17.25;;;;;;;1.50;73.81;100004.53;2223544;80;33157;-69
2021/01/27 03:38:10;;;;;;;25.05;15.75;;;;;;;1.47;73.61;100012.50;2195233;80;30053;-71
2021/01/27 03:41:28;;;;;;;24.85;15.30;;;;;;;1.41;73.45;100013.91;2199603;80;27608;-69
2021/01/27 03:44:35;;;;;;;24.45;15.58;;;;;;;1.31;73.29;100011.89;2223501;80;28857;-69
2021/01/27 03:47:46;;;;;;;21.35;13.38;;;;;;;1.20;73.33;100012.50;2211250;80;32043;-69
2021/01/27 03:50:51;;;;;;;21.23;12.55;;;;;;;1.13;73.37;100023.59;2193009;80;33553;-71
2021/01/27 03:53:56;;;;;;;17.20;11.08;;;;;;;1.08;73.39;100026.74;2221895;80;30134;-70
2021/01/27 03:57:02;;;;;;;17.90;11.12;;;;;;;1.04;73.46;100025.06;2222342;80;27759;-70
2021/01/27 04:00:10;;;;;;;21.42;12.80;;;;;;;1.03;73.57;100025.96;2194305;80;29085;-70
2021/01/27 04:03:21;;;;;;;24.57;14.18;;;;;;;1.02;73.61;100023.75;2187458;80;31949;-70
2021/01/27 04:06:22;;;;;;;23.83;13.00;;;;;;;1.02;73.67;100021.11;2194812;80;33985;-70
2021/01/27 04:09:24;;;;;;;26.62;14.38;;;;;;;1.03;73.69;100025.50;2206292;80;30393;-69
2021/01/27 04:12:26;;;;;;;28.67;15.75;;;;;;;1.02;73.70;100018.48;2195032;80;27630;-70
2021/01/27 04:15:28;;;;;;;26.45;14.75;;;;;;;1.01;73.62;100024.64;2185129;81;29775;-70
2021/01/27 04:18:30;;;;;;;25.57;14.87;;;;;;;0.98;73.60;100029.10;2185331;80;32112;-70
2021/01/27 04:21:32;;;;;;;25.35;14.80;;;;;;;0.95;73.59;100023.87;2202134;80;33113;-67
2021/01/27 04:24:35;;;;;;;25.15;14.95;;;;;;;0.95;73.48;100031.78;2223564;80;29231;-67
2021/01/27 04:27:37;;;;;;;23.60;15.18;;;;;;;0.90;73.43;100022.63;2223070;80;27751;-68
2021/01/27 04:30:39;;;;;;;30.12;15.90;;;;;;;0.89;73.35;100024.41;2195081;80;29753;-68
2021/01/27 04:34:02;;;;;;;30.23;15.50;;;;;;;0.84;73.17;100024.91;2210434;80;32112;-67
2021/01/27 04:37:04;;;;;;;34.15;15.23;;;;;;;0.80;73.13;100019.24;2111582;84;34395;-67
2021/01/27 04:40:12;;;;;;;24.10;14.63;;;;;;;0.71;72.95;100027.30;2097934;83;30321;-66
2021/01/27 04:43:32;;;;;;;28.38;14.95;;;;;;;0.63;72.88;100030.46;2087580;84;28476;-67
2021/01/27 04:46:37;;;;;;;23.73;13.22;;;;;;;0.57;73.10;100036.69;2111856;84;28892;-66
2021/01/27 04:49:47;;;;;;;23.73;13.35;;;;;;;0.52;73.29;100036.75;2108779;83;32118;-66
2021/01/27 04:53:39;;;;;;;22.48;13.65;;;;;;;0.50;73.47;100039.85;2110097;84;34056;-65
2021/01/27 04:56:58;;;;;;;27.75;15.55;;;;;;;0.51;73.48;100049.51;2111192;84;29171;-65
2021/01/27 05:00:20;;;;;;;25.37;15.15;;;;;;;0.51;73.59;100043.34;2111425;84;27875;-68
2021/01/27 05:03:52;;;;;;;30.20;15.35;;;;;;;0.53;73.66;100046.84;2088705;83;28886;-70
2021/01/27 05:07:05;;;;;;;26.48;13.22;;;;;;;0.54;73.69;100048.58;2139418;82;31676;-67
2021/01/27 05:10:14;;;;;;;22.95;12.23;;;;;;;0.54;73.64;100045.95;2155914;82;33326;-67
2021/01/27 05:13:26;;;;;;;22.15;11.48;;;;;;;0.56;73.65;100045.48;2154048;82;28365;-68
2021/01/27 05:16:31;;;;;;;22.10;11.22;;;;;;;0.54;73.43;100032.77;2157724;82;27800;-70
2021/01/27 05:19:33;;;;;;;;;;;;;;;0.54;73.41;100038.94;2159978;82;28831;-68
2021/01/27 05:22:35;;;;;;;23.15;11.38;;;;;;;0.55;73.37;100035.84;2155971;82;31172;-70
2021/01/27 05:26:06;;;;;;;26.62;12.05;;;;;;;0.53;73.32;100040.25;2179333;81;34058;-67
2021/01/27 05:29:18;;;;;;;18.80;10.32;;;;;;;0.51;73.30;100044.66;2162123;81;30138;-68
2021/01/27 05:32:25;;;;;;;17.90;10.85;;;;;;;0.50;73.34;100042.95;2157085;82;27711;-67
2021/01/27 05:35:35;;;;;;;20.10;9.80;;;;;;;0.51;73.38;100041.60;2154927;82;28917;-68
2021/01/27 05:38:37;;;;;;;22.07;10.88;;;;;;;0.53;73.57;100039.82;2149883;82;32320;-66
2021/01/27 05:41:39;;;;;;;17.48;10.43;;;;;;;0.59;73.49;100044.14;2121188;83;33282;-67
2021/01/27 05:44:41;;;;;;;17.32;8.83;;;;;;;0.62;73.42;100048.06;2103111;84;29159;-68
2021/01/27 05:47:43;;;;;;;17.27;9.70;;;;;;;0.65;73.40;100051.98;2117702;83;27696;-67
2021/01/27 05:50:45;;;;;;;18.67;10.05;;;;;;;0.68;73.40;100047.10;2117784;83;29859;-68
2021/01/27 05:53:47;;;;;;;20.20;9.23;;;;;;;0.74;73.46;100045.72;2118211;83;31226;-68
2021/01/27 05:56:51;;;;;;;17.23;8.53;;;;;;;0.82;73.44;100049.56;2106399;84;33992;-69
2021/01/27 06:00:24;;;;;;;16.77;9.15;;;;;;;0.89;73.21;100054.73;2106423;84;29167;-68
2021/01/27 06:03:26;;;;;;;15.20;8.48;;;;;;;0.93;73.12;100051.59;2073363;85;27668;-68
2021/01/27 06:06:32;;;;;;;17.95;9.75;;;;;;;0.96;72.98;100048.92;2095257;83;29835;-66
2021/01/27 06:09:42;;;;;;;25.57;12.30;;;;;;;0.95;73.00;100052.45;2146885;82;32342;-66
2021/01/27 06:15:59;;;;;;;23.93;10.63;;;;;;;0.99;73.11;100051.52;2248198;78;36851;-66
2021/01/27 06:19:15;;;;;;;15.93;9.13;;;;;;;0.96;73.06;100055.52;2195354;79;28097;-66
2021/01/27 06:22:30;;;;;;;20.02;9.55;;;;;;;0.96;73.06;100056.83;2200540;79;29875;-66
2021/01/27 06:26:12;;;;;;;15.55;8.53;;;;;;;1.01;73.01;100060.72;2225923;79;32957;-66
2021/01/27 06:29:26;;;;;;;16.23;8.65;;;;;;;1.02;73.09;100059.36;2227994;79;33898;-66
2021/01/27 06:32:40;;;;;;;17.67;9.23;;;;;;;1.06;72.99;100062.85;2200076;79;28518;-67
2021/01/27 06:36:22;;;;;;;18.15;9.23;;;;;;;1.10;73.01;100067.63;2188843;80;27644;-69
2021/01/27 06:40:07;;;;;;;18.27;9.53;;;;;;;1.09;72.79;100060.61;2189456;79;28819;-68
2021/01/27 06:43:34;;;;;;;26.68;10.05;;;;;;;1.11;72.94;100062.31;2225801;79;31156;-70
2021/01/27 06:46:44;;;;;;;19.73;10.75;;;;;;;1.14;72.96;100051.72;2228223;79;33953;-70
2021/01/27 06:50:32;;;;;;;21.30;10.23;;;;;;;1.16;72.86;100053.04;2188088;80;28906;-68
2021/01/27 06:54:04;;;;;;;25.17;12.15;;;;;;;1.19;72.86;100058.24;2159478;82;27795;-68
2021/01/27 06:57:48;;;;;;;21.43;11.73;;;;;;;1.28;72.94;100059.88;2229307;78;32786;-69
2021/01/27 07:01:32;;;;;;;25.40;12.58;;;;;;;1.39;73.01;100063.67;2217669;79;27684;-67
2021/01/27 07:05:02;;;;;;;26.07;11.40;;;;;;;1.47;72.86;100058.69;2202130;79;29568;-66
2021/01/27 07:08:32;;;;;;;19.90;11.12;;;;;;;1.53;72.86;100062.14;2228509;79;31242;-69
2021/01/27 07:12:10;;;;;;;23.77;10.60;;;;;;;1.54;72.90;100062.56;2226178;79;34127;-69
2021/01/27 07:15:26;;;;;;;20.82;10.80;;;;;;;1.54;72.86;100068.70;2206297;79;28530;-68
2021/01/27 07:19:03;;;;;;;20.92;12.05;;;;;;;1.54;72.79;100065.20;2189465;79;27780;-68
2021/01/27 07:22:33;;;;;;;20.50;11.12;;;;;;;1.53;72.84;100069.59;2189289;81;28880;-68
2021/01/27 07:26:00;;;;;;;21.07;11.60;;;;;;;1.54;72.84;100062.10;2189449;81;31154;-69
2021/01/27 07:29:11;;;;;;;19.32;10.58;;;;;;;1.56;72.87;100067.37;2175463;80;34043;-68
2021/01/27 07:32:21;;;;;;;28.70;12.50;;;;;;;1.58;72.82;100066.44;2197462;80;30104;-65
2021/01/27 07:35:42;;;;;;;26.27;11.88;;;;;;;1.61;72.88;100065.51;2218269;80;27625;-62
2021/01/27 07:38:46;;;;;;;21.90;12.68;;;;;;;1.65;72.80;100072.06;2218075;80;28890;-67
2021/01/27 07:41:59;;;;;;;21.62;12.25;;;;;;;1.70;72.71;100069.77;2216372;80;32045;-66
2021/01/27 07:45:13;;;;;;;26.17;12.43;;;;;;;1.73;72.66;100071.92;2176198;81;34130;-66
2021/01/27 07:48:23;;;;;;;22.75;13.13;;;;;;;1.74;72.43;100070.14;2142215;81;29038;-65
2021/01/27 07:51:30;;;;;;;21.27;13.00;;;;;;;1.74;72.64;100074.10;2138601;83;27678;-64
2021/01/27 07:54:37;;;;;;;23.05;13.38;;;;;;;1.77;72.50;100070.09;2137924;83;29598;-65
2021/01/27 07:58:05;;;;;;;26.57;15.13;;;;;;;1.79;72.70;100066.52;2124792;82;31153;-65
2021/01/27 08:01:27;;;;;;;26.93;15.13;;;;;;;1.90;72.60;100062.38;2247608;78;27938;-65
2021/01/27 08:04:55;;;;;;;22.20;14.50;;;;;;;1.93;72.63;100072.00;2212237;79;28184;-64
2021/01/27 08:08:16;;;;;;;25.02;14.23;;;;;;;1.97;72.50;100073.27;2225956;79;28826;-64
2021/01/27 08:11:35;;;;;;;21.10;12.78;;;;;;;2.03;72.42;100073.59;2228699;79;32127;-64
2021/01/27 08:15:11;;;;;;;22.07;11.33;;;;;;;2.07;72.42;100069.98;2223329;79;33132;-63
2021/01/27 08:18:19;;;;;;;22.67;13.40;;;;;;;2.17;72.27;100075.11;2214496;80;28594;-63
2021/01/27 08:21:26;;;;;;;22.50;11.80;;;;;;;2.27;72.26;100074.02;2178239;80;27650;-64
2021/01/27 08:24:41;;;;;;;22.27;12.43;;;;;;;2.37;71.91;100077.36;2180058;80;28872;-62
2021/01/27 08:27:43;;;;;;;15.30;8.68;;;;;;;2.41;71.84;100079.05;2179481;81;31144;-63
2021/01/27 08:31:16;;;;;;;22.20;14.70;;;;;;;2.49;71.80;100082.40;2179347;80;33109;-62
2021/01/27 08:34:42;;;;;;;20.37;12.25;;;;;;;2.54;71.64;100078.37;2206875;80;29870;-65
2021/01/27 08:37:52;;;;;;;18.85;11.45;;;;;;;2.65;71.49;100082.13;2198810;80;27715;-66
2021/01/27 08:40:54;;;;;;;20.82;12.37;;;;;;;2.69;71.32;100074.52;2209752;80;29776;-65
2021/01/27 08:43:56;;;;;;;22.55;13.20;;;;;;;2.72;71.17;100079.75;2187497;80;31135;-65
2021/01/27 08:47:36;;;;;;;23.45;12.68;;;;;;;2.79;71.36;100084.02;2184649;80;34069;-65
2021/01/27 08:50:52;;;;;;;18.10;10.58;;;;;;;2.87;71.26;100083.39;2188306;81;28928;-65
2021/01/27 08:53:56;;;;;;;18.73;10.53;;;;;;;2.88;71.07;100080.31;2218252;80;27669;-64
2021/01/27 08:57:30;;;;;;;;;;;;;;;3.01;70.89;100095.02;2190294;81;28837;-64
2021/01/27 09:00:40;;;;;;;15.95;10.20;;;;;;;3.02;70.36;100098.08;2202941;80;31134;-66
2021/01/27 09:03:50;;;;;;;16.50;10.53;;;;;;;2.98;70.25;100097.72;2188924;80;33535;-64
2021/01/27 09:06:56;;;;;;;18.20;11.80;;;;;;;2.99;70.40;100099.46;2136923;83;28946;-65
2021/01/27 09:09:57;;;;;;;17.27;11.03;;;;;;;3.05;70.48;100105.07;2125800;82;27710;-64
2021/01/27 09:13:02;;;;;;;17.62;10.10;;;;;;;3.09;70.34;100108.08;2189923;81;28820;-65
2021/01/27 09:16:27;;;;;;;16.73;9.80;;;;;;;3.14;70.14;100108.86;2167931;81;31155;-65
2021/01/27 09:19:31;;;;;;;18.35;11.15;;;;;;;3.17;70.08;100111.41;2195114;81;34048;-65
2021/01/27 09:22:34;;;;;;;17.57;10.50;;;;;;;3.24;70.16;100112.61;2193173;81;28910;-64
2021/01/27 09:25:44;;;;;;;19.75;10.18;;;;;;;3.32;70.04;100113.28;2182684;81;27621;-65
2021/01/27 09:28:48;;;;;;;17.67;10.68;;;;;;;3.39;69.97;100108.75;2182470;81;28895;-66
2021/01/27 09:31:51;;;;;;;18.30;10.60;;;;;;;3.43;69.51;100113.94;2188759;80;32258;-63
2021/01/27 09:34:53;;;;;;;17.90;10.55;;;;;;;3.45;69.39;100109.91;2141487;82;33117;-63
2021/01/27 09:38:03;;;;;;;17.77;10.40;;;;;;;3.51;69.39;100113.75;2195174;81;28874;-60
2021/01/27 09:41:14;;;;;;;20.32;12.63;;;;;;;3.60;69.23;100117.96;2194694;81;27809;-64
2021/01/27 09:44:36;;;;;;;22.98;11.57;;;;;;;3.69;69.16;100105.80;2183823;81;28827;-64
2021/01/27 09:47:44;;;;;;;18.50;10.43;;;;;;;3.83;69.56;100114.75;2152966;82;31230;-66
2021/01/27 09:51:00;;;;;;;22.25;10.38;;;;;;;3.98;69.42;100108.17;2173271;81;33106;-67
2021/01/27 09:54:03;;;;;;;15.05;9.38;;;;;;;4.09;69.04;100106.14;2152944;82;29799;-65
2021/01/27 09:57:05;;;;;;;18.15;9.35;;;;;;;4.17;68.63;100107.70;2144834;81;27852;-66
2021/01/27 10:00:12;;;;;;;22.80;11.00;;;;;;;4.21;68.52;100108.92;2171166;80;28842;-64
2021/01/27 10:03:31;;;;;;;15.53;10.23;;;;;;;4.29;68.31;100108.72;2196985;80;30969;-64
2021/01/27 10:06:42;;;;;;;22.20;12.63;;;;;;;4.38;68.10;100106.28;2193038;80;34399;-62
2021/01/27 10:09:52;;;;;;;21.02;10.88;;;;;;;4.45;68.35;100104.33;2112223;82;30130;-64
2021/01/27 10:12:57;;;;;;;17.90;10.90;;;;;;;4.53;68.18;100106.30;2146846;82;27717;-63
2021/01/27 10:16:14;;;;;;;16.48;9.70;;;;;;;4.56;67.85;100099.58;2156526;81;28899;-64
2021/01/27 10:19:27;;;;;;;18.50;11.53;;;;;;;4.53;66.93;100099.66;2188714;81;31200;-63
2021/01/27 10:22:36;;;;;;;20.23;10.25;;;;;;;4.51;67.40;100098.83;2187810;81;33350;-63
2021/01/27 10:25:44;;;;;;;16.15;9.60;;;;;;;4.52;67.00;100101.90;2158803;81;29053;-64
2021/01/27 10:28:47;;;;;;;13.80;8.90;;;;;;;4.54;66.87;100097.42;2188716;81;27609;-64
2021/01/27 10:31:54;;;;;;;14.35;9.10;;;;;;;4.55;66.99;100093.86;2188867;81;28814;-64
2021/01/27 10:34:56;;;;;;;14.18;8.80;;;;;;;4.60;67.02;100088.42;2188285;81;32126;-64
2021/01/27 10:38:11;;;;;;;13.50;9.10;;;;;;;4.62;66.79;100091.91;2188642;81;34492;-64
2021/01/27 10:41:16;;;;;;;11.88;8.15;;;;;;;4.63;66.48;100095.86;2188262;81;28857;-64
2021/01/27 10:44:37;;;;;;;13.20;8.40;;;;;;;4.60;65.86;100091.95;2166846;81;27655;-64
2021/01/27 10:47:40;;;;;;;13.65;8.33;;;;;;;4.61;66.38;100095.03;2146837;82;28827;-63
2021/01/27 10:50:47;;;;;;;19.05;9.35;;;;;;;4.62;65.85;100084.83;2188638;81;31729;-64
2021/01/27 10:53:50;;;;;;;12.73;8.35;;;;;;;4.69;66.55;100082.87;2188453;81;33131;-64
2021/01/27 10:56:54;;;;;;;14.15;9.48;;;;;;;4.73;65.90;100082.31;2191510;81;28874;-64
2021/01/27 10:59:57;;;;;;;17.40;10.03;;;;;;;4.77;66.30;100074.68;2189827;81;28194;-64
2021/01/27 11:02:59;;;;;;;14.18;8.05;;;;;;;4.84;65.75;100081.53;2179299;81;29712;-64
2021/01/27 11:06:04;;;;;;;16.60;9.55;;;;;;;4.81;65.69;100079.84;2146863;81;32713;-63
2021/01/27 11:09:09;;;;;;;15.75;9.23;;;;;;;4.85;65.91;100076.64;2139305;83;33981;-63
2021/01/27 11:12:11;;;;;;;18.52;10.30;;;;;;;4.90;65.93;100073.40;2070121;84;28866;-63
2021/01/27 11:15:14;;;;;;;18.42;10.72;;;;;;;5.01;66.32;100067.30;2103169;84;28278;-63
2021/01/27 11:18:18;;;;;;;23.75;15.72;;;;;;;5.13;66.28;100070.04;2174745;81;28823;-64
2021/01/27 11:21:21;;;;;;;22.55;14.10;;;;;;;5.22;65.95;100064.90;2139041;83;31574;-64
2021/01/27 11:24:24;;;;;;;24.57;14.78;;;;;;;5.32;65.45;100065.48;2121740;83;34062;-65
2021/01/27 11:27:26;;;;;;;22.27;12.40;;;;;;;5.27;65.35;100058.11;2174468;80;29952;-63
2021/01/27 11:30:29;;;;;;;19.27;12.98;;;;;;;5.32;65.05;100063.68;2217398;80;27678;-64
2021/01/27 11:33:32;;;;;;;22.40;11.70;;;;;;;5.31;65.19;100065.07;2221977;80;28993;-64
2021/01/27 11:36:34;;;;;;;20.40;12.13;;;;;;;5.34;64.65;100058.34;2216995;80;31132;-63
2021/01/27 11:39:37;;;;;;;18.90;12.05;;;;;;;5.31;64.68;100057.10;2216957;80;33107;-64
2021/01/27 11:42:39;;;;;;;21.52;13.32;;;;;;;5.32;65.22;100057.52;2217262;80;29906;-64
2021/01/27 11:45:41;;;;;;;20.17;13.10;;;;;;;5.39;65.02;100059.52;2217294;80;28135;-63
2021/01/27 11:48:44;;;;;;;22.22;13.38;;;;;;;5.43;64.92;100062.48;2217327;80;28832;-62
2021/01/27 11:51:48;;;;;;;33.80;17.07;;;;;;;5.44;63.91;100059.77;2219857;80;31148;-64
2021/01/27 11:54:51;;;;;;;22.73;12.95;;;;;;;5.36;64.55;100062.26;2224866;80;33117;-61
2021/01/27 11:57:55;;;;;;;20.92;12.43;;;;;;;5.27;64.16;100060.33;2191685;80;28869;-63
2021/01/27 12:00:59;;;;;;;28.02;17.05;;;;;;;5.26;64.54;100058.58;2229777;79;27605;-63
2021/01/27 12:04:05;;;;;;;38.58;22.73;;;;;;;5.27;64.64;100059.44;2173596;80;28830;-64
2021/01/27 12:07:08;;;;;;;15.35;10.53;;;;;;;5.29;64.34;100053.63;2195930;80;32516;-65
2021/01/27 12:10:12;;;;;;;13.48;7.00;;;;;;;5.22;63.43;100046.31;2156652;82;34135;-65
2021/01/27 12:13:17;;;;;;;12.37;8.85;;;;;;;5.14;63.57;100046.55;2195564;80;28960;-58
2021/01/27 12:16:20;;;;;;;10.48;6.35;;;;;;;5.09;63.29;100047.63;2222749;80;27670;-64
2021/01/27 12:19:23;;;;;;;4.80;3.17;;;;;;;5.03;62.96;100048.69;2222501;80;28889;-61
2021/01/27 12:22:26;;;;;;;9.68;4.83;;;;;;;4.93;61.30;100048.09;2222443;80;31068;-64
2021/01/27 12:25:28;;;;;;;5.15;3.10;;;;;;;4.80;61.73;100045.41;2211214;80;33084;-63
2021/01/27 12:28:31;;;;;;;6.83;3.95;;;;;;;4.72;61.90;100037.64;2206964;80;28867;-62
2021/01/27 12:31:34;;;;;;;6.10;2.60;;;;;;;4.61;60.94;100038.42;2194862;80;27650;-61
2021/01/27 12:34:37;;;;;;;11.75;5.90;;;;;;;4.52;61.30;100033.81;2176365;81;28835;-61
2021/01/27 12:37:40;;;;;;;18.77;9.53;;;;;;;4.50;61.79;100034.31;2175983;81;31657;-61
2021/01/27 12:40:44;;;;;;;17.55;9.50;;;;;;;4.49;61.94;100033.89;2159908;82;34098;-61
2021/01/27 12:43:50;;;;;;;25.17;9.60;;;;;;;4.47;61.63;100029.09;2175172;81;28862;-62
2021/01/27 12:46:55;;;;;;;25.97;10.58;;;;;;;4.46;61.92;100033.13;2175444;80;27721;-60
2021/01/27 12:49:58;;;;;;;20.17;8.80;;;;;;;4.41;61.82;100030.58;2183469;80;28895;-60
2021/01/27 12:53:00;;;;;;;13.45;5.37;;;;;;;4.42;61.83;100027.02;2183399;81;32182;-62
2021/01/27 12:56:04;;;;;;;11.03;5.22;;;;;;;4.40;61.49;100032.81;2217051;80;33128;-62
2021/01/27 12:59:06;;;;;;;13.03;4.45;;;;;;;4.41;61.86;100030.58;2194130;80;28433;-63
2021/01/27 13:02:09;;;;;;;11.93;5.50;;;;;;;4.41;61.61;100030.14;2205280;80;27686;-61
2021/01/27 13:05:13;;;;;;;6.72;4.12;;;;;;;4.44;61.86;100039.78;2198742;80;28830;-63
2021/01/27 13:08:18;;;;;;;6.80;4.30;;;;;;;4.44;61.67;100029.17;2198759;80;27797;-63
2021/01/27 13:11:20;;;;;;;14.25;6.25;;;;;;;4.44;61.15;100027.84;2164754;80;33956;-62
2021/01/27 13:14:23;;;;;;;11.08;5.37;;;;;;;4.38;60.66;100035.52;2142964;83;29172;-63
2021/01/27 13:17:30;;;;;;;20.72;8.40;;;;;;;4.37;61.50;100039.56;2145178;83;28140;-62
2021/01/27 13:20:33;;;;;;;15.68;6.72;;;;;;;4.34;61.01;100036.98;2142446;83;29781;-63
2021/01/27 13:23:37;;;;;;;11.35;5.15;;;;;;;4.30;61.14;100035.33;2182515;81;31149;-62
2021/01/27 13:26:40;;;;;;;12.45;4.42;;;;;;;4.26;60.76;100042.03;2183113;80;33237;-63
2021/01/27 13:29:42;;;;;;;6.03;3.37;;;;;;;4.20;60.49;100035.59;2183256;81;29176;-64
2021/01/27 13:32:45;;;;;;;7.97;3.20;;;;;;;4.16;59.95;100039.23;2152842;82;27702;-63
2021/01/27 13:35:50;;;;;;;7.22;3.20;;;;;;;4.15;60.10;100041.91;2133029;82;28937;-64
2021/01/27 13:38:52;;;;;;;18.12;7.40;;;;;;;4.08;60.14;100043.42;2197816;80;32179;-60
2021/01/27 13:41:54;;;;;;;7.35;5.35;;;;;;;4.06;59.90;100043.92;2171079;81;33901;-65
2021/01/27 13:44:57;;;;;;;6.58;4.00;;;;;;;4.03;60.29;100040.02;2162772;80;29170;-59
2021/01/27 13:48:00;;;;;;;16.15;5.65;;;;;;;4.02;60.12;100032.98;2166107;80;27945;-62
2021/01/27 13:51:02;;;;;;;14.55;6.50;;;;;;;4.00;60.15;100031.29;2199396;80;28821;-63
2021/01/27 13:54:05;;;;;;;13.50;6.50;;;;;;;3.97;60.14;100035.34;2191106;80;32661;-62
2021/01/27 13:57:07;;;;;;;21.30;10.13;;;;;;;3.96;60.28;100031.84;2191529;80;34476;-64
2021/01/27 14:00:13;;;;;;;12.45;6.15;;;;;;;4.00;60.44;100031.29;2199339;80;30059;-63
2021/01/27 14:03:15;;;;;;;;;;;;;;;4.01;60.64;100027.73;2201389;80;27760;-64
2021/01/27 14:06:18;;;;;;;17.90;11.45;;;;;;;4.02;60.45;100025.50;2199589;80;29742;-62
2021/01/27 14:09:24;;;;;;;21.05;10.60;;;;;;;4.00;60.61;100017.56;2179899;80;32137;-63
2021/01/27 14:12:27;;;;;;;15.35;7.95;;;;;;;4.01;60.47;100025.94;2198489;80;32888;-62
2021/01/27 14:15:34;;;;;;;36.50;21.50;;;;;;;4.01;60.70;100017.98;2191651;80;29169;-63
2021/01/27 14:18:37;;;;;;;22.82;11.68;;;;;;;3.99;60.31;100017.63;2171170;82;27687;-63
2021/01/27 14:21:40;;;;;;;19.37;12.40;;;;;;;3.94;60.53;100021.26;2170957;81;29888;-63
2021/01/27 14:24:45;;;;;;;17.12;9.03;;;;;;;3.93;60.62;100016.01;2152912;82;31224;-64
2021/01/27 14:27:50;;;;;;;15.48;8.43;;;;;;;3.92;60.68;100022.22;2180456;81;34493;-63
2021/01/27 14:30:55;;;;;;;19.12;7.47;;;;;;;3.89;60.50;100020.50;2194523;81;30112;-63
2021/01/27 14:34:00;;;;;;;12.70;6.87;;;;;;;3.86;60.52;100017.07;2169043;81;27717;-63
2021/01/27 14:37:05;;;;;;;12.43;6.83;;;;;;;3.84;60.81;100010.94;2154201;82;30224;-63
2021/01/27 14:40:09;;;;;;;14.58;9.15;;;;;;;3.84;60.78;100008.29;2163746;81;32096;-62
2021/01/27 14:43:13;;;;;;;37.58;15.93;;;;;;;3.83;60.73;100015.38;2163203;81;34039;-62